sensor_id;sensor_type;location;lat;lon;timestamp;temperature;humidity
41953;DHT22;63613;28.200;112.870;2023-02-28T00:01:14;16.80;58.30
41953;DHT22;63613;28.200;112.870;2023-02-28T00:03:44;16.80;58.40
41953;DHT22;63613;28.200;112.870;2023-02-28T00:06:11;16.80;58.40
41953;DHT22;63613;28.200;112.870;2023-02-28T00:08:38;16.80;58.40
41953;DHT22;63613;28.200;112.870;2023-02-28T00:11:08;16.80;58.40
41953;DHT22;63613;28.200;112.870;2023-02-28T00:13:38;16.80;58.40
41953;DHT22;63613;28.200;112.870;2023-02-28T00:16:14;16.80;58.50
41953;DHT22;63613;28.200;112.870;2023-02-28T00:18:41;16.80;58.50
41953;DHT22;63613;28.200;112.870;2023-02-28T00:21:08;16.80;58.50
41953;DHT22;63613;28.200;112.870;2023-02-28T00:23:36;16.80;58.60
41953;DHT22;63613;28.200;112.870;2023-02-28T00:26:03;16.80;58.60
41953;DHT22;63613;28.200;112.870;2023-02-28T00:28:30;16.80;58.70
41953;DHT22;63613;28.200;112.870;2023-02-28T00:31:17;16.80;58.80
41953;DHT22;63613;28.200;112.870;2023-02-28T00:33:44;16.80;58.80
41953;DHT22;63613;28.200;112.870;2023-02-28T00:36:11;16.80;58.80
41953;DHT22;63613;28.200;112.870;2023-02-28T00:38:39;16.80;58.90
41953;DHT22;63613;28.200;112.870;2023-02-28T00:41:07;16.80;58.90
41953;DHT22;63613;28.200;112.870;2023-02-28T00:43:36;16.80;58.90
41953;DHT22;63613;28.200;112.870;2023-02-28T00:46:03;16.80;58.90
41953;DHT22;63613;28.200;112.870;2023-02-28T00:48:30;16.80;58.90
41953;DHT22;63613;28.200;112.870;2023-02-28T00:51:17;16.80;58.90
41953;DHT22;63613;28.200;112.870;2023-02-28T00:53:44;16.70;59.00
41953;DHT22;63613;28.200;112.870;2023-02-28T00:56:11;16.70;59.10
41953;DHT22;63613;28.200;112.870;2023-02-28T00:58:57;16.70;59.10
41953;DHT22;63613;28.200;112.870;2023-02-28T01:01:24;16.80;59.10
41953;DHT22;63613;28.200;112.870;2023-02-28T01:03:51;16.70;59.20
41953;DHT22;63613;28.200;112.870;2023-02-28T01:06:18;16.80;59.30
41953;DHT22;63613;28.200;112.870;2023-02-28T01:08:45;16.80;59.20
41953;DHT22;63613;28.200;112.870;2023-02-28T01:11:14;16.70;59.40
41953;DHT22;63613;28.200;112.870;2023-02-28T01:13:42;16.70;59.50
41953;DHT22;63613;28.200;112.870;2023-02-28T01:16:09;16.70;59.40
41953;DHT22;63613;28.200;112.870;2023-02-28T01:18:36;16.70;59.50
41953;DHT22;63613;28.200;112.870;2023-02-28T01:21:05;16.70;59.50
41953;DHT22;63613;28.200;112.870;2023-02-28T01:23:32;16.70;59.50
41953;DHT22;63613;28.200;112.870;2023-02-28T01:26:07;16.70;59.50
41953;DHT22;63613;28.200;112.870;2023-02-28T01:28:35;16.70;59.40
41953;DHT22;63613;28.200;112.870;2023-02-28T01:31:22;16.70;59.40
41953;DHT22;63613;28.200;112.870;2023-02-28T01:33:50;16.80;59.30
41953;DHT22;63613;28.200;112.870;2023-02-28T01:36:23;16.70;59.40
41953;DHT22;63613;28.200;112.870;2023-02-28T01:38:50;16.70;59.40
41953;DHT22;63613;28.200;112.870;2023-02-28T01:41:37;16.70;59.40
41953;DHT22;63613;28.200;112.870;2023-02-28T01:46:53;16.70;59.50
41953;DHT22;63613;28.200;112.870;2023-02-28T01:49:20;16.70;59.50
41953;DHT22;63613;28.200;112.870;2023-02-28T01:51:53;16.70;59.50
41953;DHT22;63613;28.200;112.870;2023-02-28T01:54:25;16.70;59.50
41953;DHT22;63613;28.200;112.870;2023-02-28T01:57:05;16.70;59.50
41953;DHT22;63613;28.200;112.870;2023-02-28T02:02:13;16.60;59.60
41953;DHT22;63613;28.200;112.870;2023-02-28T02:05:29;16.60;59.70
41953;DHT22;63613;28.200;112.870;2023-02-28T02:07:39;16.60;59.70
41953;DHT22;63613;28.200;112.870;2023-02-28T02:10:20;16.70;59.60
41953;DHT22;63613;28.200;112.870;2023-02-28T02:15:56;16.60;59.60
41953;DHT22;63613;28.200;112.870;2023-02-28T02:27:20;16.60;59.80
41953;DHT22;63613;28.200;112.870;2023-02-28T02:30:02;16.60;59.90
41953;DHT22;63613;28.200;112.870;2023-02-28T02:32:44;16.60;59.80
41953;DHT22;63613;28.200;112.870;2023-02-28T02:38:58;16.60;59.80
41953;DHT22;63613;28.200;112.870;2023-02-28T02:41:34;16.60;59.80
41953;DHT22;63613;28.200;112.870;2023-02-28T02:44:11;16.60;59.70
41953;DHT22;63613;28.200;112.870;2023-02-28T02:46:44;16.70;59.70
41953;DHT22;63613;28.200;112.870;2023-02-28T02:49:32;16.70;59.70
41953;DHT22;63613;28.200;112.870;2023-02-28T02:52:07;16.60;59.70
41953;DHT22;63613;28.200;112.870;2023-02-28T02:54:37;16.60;59.70
41953;DHT22;63613;28.200;112.870;2023-02-28T02:57:20;16.70;59.70
41953;DHT22;63613;28.200;112.870;2023-02-28T02:59:49;16.60;59.70
41953;DHT22;63613;28.200;112.870;2023-02-28T03:02:17;16.60;59.70
41953;DHT22;63613;28.200;112.870;2023-02-28T03:04:56;16.60;59.80
41953;DHT22;63613;28.200;112.870;2023-02-28T03:07:27;16.60;59.70
41953;DHT22;63613;28.200;112.870;2023-02-28T03:09:56;16.60;59.60
41953;DHT22;63613;28.200;112.870;2023-02-28T03:12:32;16.60;59.60
41953;DHT22;63613;28.200;112.870;2023-02-28T03:15:26;16.60;59.70
41953;DHT22;63613;28.200;112.870;2023-02-28T03:18:06;16.60;59.70
41953;DHT22;63613;28.200;112.870;2023-02-28T03:23:21;16.60;59.70
41953;DHT22;63613;28.200;112.870;2023-02-28T03:28:54;16.70;59.70
41953;DHT22;63613;28.200;112.870;2023-02-28T03:31:38;16.60;59.60
41953;DHT22;63613;28.200;112.870;2023-02-28T03:34:24;16.60;59.60
41953;DHT22;63613;28.200;112.870;2023-02-28T03:36:56;16.70;59.60
41953;DHT22;63613;28.200;112.870;2023-02-28T03:39:37;16.70;59.60
41953;DHT22;63613;28.200;112.870;2023-02-28T03:42:27;16.80;59.50
41953;DHT22;63613;28.200;112.870;2023-02-28T03:44:58;16.80;59.50
41953;DHT22;63613;28.200;112.870;2023-02-28T03:47:37;16.80;59.40
41953;DHT22;63613;28.200;112.870;2023-02-28T03:50:10;16.80;59.40
41953;DHT22;63613;28.200;112.870;2023-02-28T03:52:56;16.80;59.20
41953;DHT22;63613;28.200;112.870;2023-02-28T03:55:36;16.90;59.20
41953;DHT22;63613;28.200;112.870;2023-02-28T04:01:09;16.90;59.20
41953;DHT22;63613;28.200;112.870;2023-02-28T04:03:38;16.90;59.10
41953;DHT22;63613;28.200;112.870;2023-02-28T04:06:12;16.90;59.10
41953;DHT22;63613;28.200;112.870;2023-02-28T04:08:41;16.90;59.00
41953;DHT22;63613;28.200;112.870;2023-02-28T04:11:20;16.90;58.90
41953;DHT22;63613;28.200;112.870;2023-02-28T04:13:48;17.00;58.80
41953;DHT22;63613;28.200;112.870;2023-02-28T04:16:15;17.00;58.80
41953;DHT22;63613;28.200;112.870;2023-02-28T04:18:43;17.00;58.80
41953;DHT22;63613;28.200;112.870;2023-02-28T04:21:10;17.00;58.80
41953;DHT22;63613;28.200;112.870;2023-02-28T04:23:38;17.10;58.70
41953;DHT22;63613;28.200;112.870;2023-02-28T04:26:05;17.10;58.70
41953;DHT22;63613;28.200;112.870;2023-02-28T04:28:33;17.10;59.60
41953;DHT22;63613;28.200;112.870;2023-02-28T04:31:03;17.00;59.10
41953;DHT22;63613;28.200;112.870;2023-02-28T04:33:32;16.90;60.20
41953;DHT22;63613;28.200;112.870;2023-02-28T04:36:06;17.00;60.00
41953;DHT22;63613;28.200;112.870;2023-02-28T04:38:38;17.00;60.20
41953;DHT22;63613;28.200;112.870;2023-02-28T04:41:06;17.00;60.40
41953;DHT22;63613;28.200;112.870;2023-02-28T04:43:35;16.90;60.50
41953;DHT22;63613;28.200;112.870;2023-02-28T04:46:22;17.00;60.70
41953;DHT22;63613;28.200;112.870;2023-02-28T04:48:49;17.00;60.60
41953;DHT22;63613;28.200;112.870;2023-02-28T04:51:17;17.00;60.90
41953;DHT22;63613;28.200;112.870;2023-02-28T04:53:46;16.90;61.50
41953;DHT22;63613;28.200;112.870;2023-02-28T04:56:14;16.90;61.70
41953;DHT22;63613;28.200;112.870;2023-02-28T04:58:44;17.00;61.20
41953;DHT22;63613;28.200;112.870;2023-02-28T05:01:17;17.10;60.70
41953;DHT22;63613;28.200;112.870;2023-02-28T05:03:45;17.20;60.50
41953;DHT22;63613;28.200;112.870;2023-02-28T05:06:13;17.30;60.40
41953;DHT22;63613;28.200;112.870;2023-02-28T05:08:41;17.30;60.40
41953;DHT22;63613;28.200;112.870;2023-02-28T05:13:50;17.30;60.40
41953;DHT22;63613;28.200;112.870;2023-02-28T05:16:17;17.20;60.30
41953;DHT22;63613;28.200;112.870;2023-02-28T05:18:45;17.30;60.20
41953;DHT22;63613;28.200;112.870;2023-02-28T05:23:51;17.30;60.10
41953;DHT22;63613;28.200;112.870;2023-02-28T05:26:19;17.30;60.10
41953;DHT22;63613;28.200;112.870;2023-02-28T05:28:46;17.30;60.10
41953;DHT22;63613;28.200;112.870;2023-02-28T05:31:15;17.30;60.10
41953;DHT22;63613;28.200;112.870;2023-02-28T05:34:02;17.20;60.10
41953;DHT22;63613;28.200;112.870;2023-02-28T05:36:31;17.20;60.10
41953;DHT22;63613;28.200;112.870;2023-02-28T05:39:00;17.20;60.10
41953;DHT22;63613;28.200;112.870;2023-02-28T05:41:27;17.30;60.00
41953;DHT22;63613;28.200;112.870;2023-02-28T05:43:54;17.30;60.00
41953;DHT22;63613;28.200;112.870;2023-02-28T05:46:21;17.30;59.90
41953;DHT22;63613;28.200;112.870;2023-02-28T05:48:49;17.30;59.80
41953;DHT22;63613;28.200;112.870;2023-02-28T05:51:16;17.30;59.70
41953;DHT22;63613;28.200;112.870;2023-02-28T05:53:44;17.30;59.60
41953;DHT22;63613;28.200;112.870;2023-02-28T05:56:12;17.40;59.50
41953;DHT22;63613;28.200;112.870;2023-02-28T05:58:39;17.40;59.40
41953;DHT22;63613;28.200;112.870;2023-02-28T06:01:34;17.40;59.30
41953;DHT22;63613;28.200;112.870;2023-02-28T06:04:03;17.40;59.30
41953;DHT22;63613;28.200;112.870;2023-02-28T06:06:31;17.40;59.20
41953;DHT22;63613;28.200;112.870;2023-02-28T06:09:00;17.40;59.20
41953;DHT22;63613;28.200;112.870;2023-02-28T06:11:27;17.50;59.10
41953;DHT22;63613;28.200;112.870;2023-02-28T06:14:02;17.50;59.10
41953;DHT22;63613;28.200;112.870;2023-02-28T06:16:30;17.50;58.90
41953;DHT22;63613;28.200;112.870;2023-02-28T06:18:59;17.50;58.90
41953;DHT22;63613;28.200;112.870;2023-02-28T06:21:27;17.50;58.90
41953;DHT22;63613;28.200;112.870;2023-02-28T06:23:55;17.50;58.90
41953;DHT22;63613;28.200;112.870;2023-02-28T06:26:22;17.50;58.90
41953;DHT22;63613;28.200;112.870;2023-02-28T06:28:49;17.50;58.90
41953;DHT22;63613;28.200;112.870;2023-02-28T06:31:17;17.50;58.90
41953;DHT22;63613;28.200;112.870;2023-02-28T06:33:45;17.50;58.90
41953;DHT22;63613;28.200;112.870;2023-02-28T06:36:32;17.50;58.90
41953;DHT22;63613;28.200;112.870;2023-02-28T06:39:01;17.50;59.00
41953;DHT22;63613;28.200;112.870;2023-02-28T06:41:49;17.50;59.00
41953;DHT22;63613;28.200;112.870;2023-02-28T06:44:18;17.50;59.00
41953;DHT22;63613;28.200;112.870;2023-02-28T06:46:46;17.50;59.00
41953;DHT22;63613;28.200;112.870;2023-02-28T06:49:15;17.60;59.00
41953;DHT22;63613;28.200;112.870;2023-02-28T06:51:44;17.50;59.00
41953;DHT22;63613;28.200;112.870;2023-02-28T06:54:12;17.50;59.10
41953;DHT22;63613;28.200;112.870;2023-02-28T06:56:39;17.50;59.10
41953;DHT22;63613;28.200;112.870;2023-02-28T06:59:06;17.50;59.10
41953;DHT22;63613;28.200;112.870;2023-02-28T07:01:33;17.50;59.00
41953;DHT22;63613;28.200;112.870;2023-02-28T07:04:01;17.50;59.00
41953;DHT22;63613;28.200;112.870;2023-02-28T07:06:28;17.50;59.00
41953;DHT22;63613;28.200;112.870;2023-02-28T07:08:55;17.40;59.00
41953;DHT22;63613;28.200;112.870;2023-02-28T07:11:23;17.40;58.90
41953;DHT22;63613;28.200;112.870;2023-02-28T07:13:55;17.40;58.90
41953;DHT22;63613;28.200;112.870;2023-02-28T07:16:42;17.40;58.90
41953;DHT22;63613;28.200;112.870;2023-02-28T07:19:09;17.40;58.90
41953;DHT22;63613;28.200;112.870;2023-02-28T07:21:36;17.50;58.80
41953;DHT22;63613;28.200;112.870;2023-02-28T07:24:03;17.50;58.70
41953;DHT22;63613;28.200;112.870;2023-02-28T07:26:30;17.60;58.50
41953;DHT22;63613;28.200;112.870;2023-02-28T07:29:17;17.60;58.50
41953;DHT22;63613;28.200;112.870;2023-02-28T07:31:44;17.60;58.40
41953;DHT22;63613;28.200;112.870;2023-02-28T07:34:13;17.70;58.40
41953;DHT22;63613;28.200;112.870;2023-02-28T07:36:40;17.80;58.40
41953;DHT22;63613;28.200;112.870;2023-02-28T07:39:07;17.70;58.40
41953;DHT22;63613;28.200;112.870;2023-02-28T07:41:35;17.70;58.50
41953;DHT22;63613;28.200;112.870;2023-02-28T07:44:12;17.80;58.50
41953;DHT22;63613;28.200;112.870;2023-02-28T07:46:39;17.80;58.60
41953;DHT22;63613;28.200;112.870;2023-02-28T07:49:06;17.80;58.40
41953;DHT22;63613;28.200;112.870;2023-02-28T07:51:33;17.80;58.30
41953;DHT22;63613;28.200;112.870;2023-02-28T07:54:00;17.80;58.30
41953;DHT22;63613;28.200;112.870;2023-02-28T07:56:28;17.80;58.30
41953;DHT22;63613;28.200;112.870;2023-02-28T07:58:55;17.80;58.40
41953;DHT22;63613;28.200;112.870;2023-02-28T08:01:22;17.80;58.50
41953;DHT22;63613;28.200;112.870;2023-02-28T08:03:49;17.80;58.60
41953;DHT22;63613;28.200;112.870;2023-02-28T08:06:21;17.80;58.80
41953;DHT22;63613;28.200;112.870;2023-02-28T08:08:49;17.80;58.90
41953;DHT22;63613;28.200;112.870;2023-02-28T08:11:16;17.80;59.00
41953;DHT22;63613;28.200;112.870;2023-02-28T08:13:44;17.80;59.10
41953;DHT22;63613;28.200;112.870;2023-02-28T08:16:12;17.80;59.20
41953;DHT22;63613;28.200;112.870;2023-02-28T08:18:49;17.90;59.20
41953;DHT22;63613;28.200;112.870;2023-02-28T08:21:17;17.80;59.30
41953;DHT22;63613;28.200;112.870;2023-02-28T08:23:46;17.80;59.40
41953;DHT22;63613;28.200;112.870;2023-02-28T08:26:15;17.80;59.40
41953;DHT22;63613;28.200;112.870;2023-02-28T08:28:42;17.80;59.50
41953;DHT22;63613;28.200;112.870;2023-02-28T08:31:12;17.80;59.40
41953;DHT22;63613;28.200;112.870;2023-02-28T08:33:40;17.80;59.40
41953;DHT22;63613;28.200;112.870;2023-02-28T08:36:27;17.80;59.50
41953;DHT22;63613;28.200;112.870;2023-02-28T08:38:57;17.80;59.40
41953;DHT22;63613;28.200;112.870;2023-02-28T08:41:25;17.80;59.60
41953;DHT22;63613;28.200;112.870;2023-02-28T08:43:52;17.80;59.50
41953;DHT22;63613;28.200;112.870;2023-02-28T08:46:19;17.80;59.50
41953;DHT22;63613;28.200;112.870;2023-02-28T08:48:50;17.80;59.60
41953;DHT22;63613;28.200;112.870;2023-02-28T08:51:38;17.80;59.60
41953;DHT22;63613;28.200;112.870;2023-02-28T08:54:05;17.80;59.80
41953;DHT22;63613;28.200;112.870;2023-02-28T08:56:33;17.80;60.00
41953;DHT22;63613;28.200;112.870;2023-02-28T08:59:00;17.80;60.10
41953;DHT22;63613;28.200;112.870;2023-02-28T09:01:28;17.80;60.30
41953;DHT22;63613;28.200;112.870;2023-02-28T09:03:56;17.80;60.30
41953;DHT22;63613;28.200;112.870;2023-02-28T09:06:25;17.80;60.30
41953;DHT22;63613;28.200;112.870;2023-02-28T09:08:52;17.70;60.50
41953;DHT22;63613;28.200;112.870;2023-02-28T09:11:20;17.70;60.60
41953;DHT22;63613;28.200;112.870;2023-02-28T09:13:47;17.70;60.60
41953;DHT22;63613;28.200;112.870;2023-02-28T09:16:15;17.70;60.70
41953;DHT22;63613;28.200;112.870;2023-02-28T09:18:43;17.70;60.80
41953;DHT22;63613;28.200;112.870;2023-02-28T09:21:13;17.70;60.80
41953;DHT22;63613;28.200;112.870;2023-02-28T09:23:44;17.70;60.90
41953;DHT22;63613;28.200;112.870;2023-02-28T09:26:16;17.60;61.00
41953;DHT22;63613;28.200;112.870;2023-02-28T09:28:44;17.60;61.00
41953;DHT22;63613;28.200;112.870;2023-02-28T09:31:17;17.60;61.10
41953;DHT22;63613;28.200;112.870;2023-02-28T09:33:50;17.60;61.10
41953;DHT22;63613;28.200;112.870;2023-02-28T09:36:37;17.60;61.20
41953;DHT22;63613;28.200;112.870;2023-02-28T09:39:04;17.60;61.10
41953;DHT22;63613;28.200;112.870;2023-02-28T09:41:44;17.60;61.20
41953;DHT22;63613;28.200;112.870;2023-02-28T09:44:38;17.60;61.10
41953;DHT22;63613;28.200;112.870;2023-02-28T09:47:31;17.50;61.00
41953;DHT22;63613;28.200;112.870;2023-02-28T09:50:04;17.60;61.00
41953;DHT22;63613;28.200;112.870;2023-02-28T09:52:33;17.50;61.10
41953;DHT22;63613;28.200;112.870;2023-02-28T09:57:42;17.50;61.10
41953;DHT22;63613;28.200;112.870;2023-02-28T10:03:01;17.50;61.20
41953;DHT22;63613;28.200;112.870;2023-02-28T10:05:35;17.40;61.30
41953;DHT22;63613;28.200;112.870;2023-02-28T10:10:45;17.50;61.30
41953;DHT22;63613;28.200;112.870;2023-02-28T10:13:35;17.50;61.30
41953;DHT22;63613;28.200;112.870;2023-02-28T10:16:07;17.40;61.30
41953;DHT22;63613;28.200;112.870;2023-02-28T10:19:42;17.40;61.30
41953;DHT22;63613;28.200;112.870;2023-02-28T10:24:42;17.40;61.20
41953;DHT22;63613;28.200;112.870;2023-02-28T10:27:24;17.40;61.10
41953;DHT22;63613;28.200;112.870;2023-02-28T10:29:56;17.30;61.00
41953;DHT22;63613;28.200;112.870;2023-02-28T10:32:50;17.30;61.00
41953;DHT22;63613;28.200;112.870;2023-02-28T10:35:19;17.30;61.00
41953;DHT22;63613;28.200;112.870;2023-02-28T10:37:49;17.30;60.90
41953;DHT22;63613;28.200;112.870;2023-02-28T10:53:31;17.20;61.00
41953;DHT22;63613;28.200;112.870;2023-02-28T10:58:59;17.20;61.10
41953;DHT22;63613;28.200;112.870;2023-02-28T11:01:37;17.20;61.20
41953;DHT22;63613;28.200;112.870;2023-02-28T11:04:38;17.20;61.30
41953;DHT22;63613;28.200;112.870;2023-02-28T11:07:27;17.10;61.30
41953;DHT22;63613;28.200;112.870;2023-02-28T11:09:55;17.20;61.40
41953;DHT22;63613;28.200;112.870;2023-02-28T11:12:34;17.10;61.50
41953;DHT22;63613;28.200;112.870;2023-02-28T11:15:23;17.10;61.40
41953;DHT22;63613;28.200;112.870;2023-02-28T11:18:30;17.10;61.50
41953;DHT22;63613;28.200;112.870;2023-02-28T11:21:00;17.10;61.60
41953;DHT22;63613;28.200;112.870;2023-02-28T11:23:30;17.10;61.70
41953;DHT22;63613;28.200;112.870;2023-02-28T11:26:01;17.10;61.70
41953;DHT22;63613;28.200;112.870;2023-02-28T11:28:31;17.00;61.70
41953;DHT22;63613;28.200;112.870;2023-02-28T11:33:52;17.00;61.80
41953;DHT22;63613;28.200;112.870;2023-02-28T11:36:31;17.00;61.90
41953;DHT22;63613;28.200;112.870;2023-02-28T11:39:10;17.10;62.00
41953;DHT22;63613;28.200;112.870;2023-02-28T11:47:32;17.00;62.20
41953;DHT22;63613;28.200;112.870;2023-02-28T11:53:22;17.00;62.30
41953;DHT22;63613;28.200;112.870;2023-02-28T12:04:11;17.00;62.80
41953;DHT22;63613;28.200;112.870;2023-02-28T12:24:30;17.00;63.30
41953;DHT22;63613;28.200;112.870;2023-02-28T12:27:07;17.00;63.40
41953;DHT22;63613;28.200;112.870;2023-02-28T12:32:33;17.00;63.50
41953;DHT22;63613;28.200;112.870;2023-02-28T12:35:21;17.00;63.70
41953;DHT22;63613;28.200;112.870;2023-02-28T12:37:51;17.00;63.80
41953;DHT22;63613;28.200;112.870;2023-02-28T12:40:23;17.00;63.70
41953;DHT22;63613;28.200;112.870;2023-02-28T12:42:57;17.00;63.70
41953;DHT22;63613;28.200;112.870;2023-02-28T12:45:43;17.00;63.70
41953;DHT22;63613;28.200;112.870;2023-02-28T12:48:21;17.00;63.80
41953;DHT22;63613;28.200;112.870;2023-02-28T12:50:50;17.00;63.90
41953;DHT22;63613;28.200;112.870;2023-02-28T12:59:50;17.00;64.20
41953;DHT22;63613;28.200;112.870;2023-02-28T13:10:57;17.00;64.70
41953;DHT22;63613;28.200;112.870;2023-02-28T13:13:26;17.00;64.70
41953;DHT22;63613;28.200;112.870;2023-02-28T13:18:42;17.00;64.50
41953;DHT22;63613;28.200;112.870;2023-02-28T13:21:23;16.90;64.60
41953;DHT22;63613;28.200;112.870;2023-02-28T13:34:41;17.00;65.00
41953;DHT22;63613;28.200;112.870;2023-02-28T13:39:54;16.90;65.10
41953;DHT22;63613;28.200;112.870;2023-02-28T13:47:44;17.00;65.20
41953;DHT22;63613;28.200;112.870;2023-02-28T13:50:34;16.90;65.20
41953;DHT22;63613;28.200;112.870;2023-02-28T13:59:12;17.00;65.20
41953;DHT22;63613;28.200;112.870;2023-02-28T14:02:03;16.90;65.30
41953;DHT22;63613;28.200;112.870;2023-02-28T14:07:05;17.00;65.40
41953;DHT22;63613;28.200;112.870;2023-02-28T14:15:04;16.90;65.50
41953;DHT22;63613;28.200;112.870;2023-02-28T14:17:41;16.90;65.60
41953;DHT22;63613;28.200;112.870;2023-02-28T14:20:15;17.00;65.60
41953;DHT22;63613;28.200;112.870;2023-02-28T14:36:50;16.90;65.60
41953;DHT22;63613;28.200;112.870;2023-02-28T14:39:26;16.90;65.70
41953;DHT22;63613;28.200;112.870;2023-02-28T14:41:57;16.90;65.70
41953;DHT22;63613;28.200;112.870;2023-02-28T14:44:31;16.90;65.90
41953;DHT22;63613;28.200;112.870;2023-02-28T14:47:02;16.90;65.80
41953;DHT22;63613;28.200;112.870;2023-02-28T14:49:41;16.90;65.90
41953;DHT22;63613;28.200;112.870;2023-02-28T14:52:24;16.90;65.80
41953;DHT22;63613;28.200;112.870;2023-02-28T14:55:00;17.00;65.90
41953;DHT22;63613;28.200;112.870;2023-02-28T14:57:39;16.90;65.90
41953;DHT22;63613;28.200;112.870;2023-02-28T15:00:31;16.90;66.00
41953;DHT22;63613;28.200;112.870;2023-02-28T15:02:59;16.90;66.10
41953;DHT22;63613;28.200;112.870;2023-02-28T15:05:31;16.90;66.00
41953;DHT22;63613;28.200;112.870;2023-02-28T15:08:11;16.90;66.10
41953;DHT22;63613;28.200;112.870;2023-02-28T15:11:04;16.90;66.30
41953;DHT22;63613;28.200;112.870;2023-02-28T15:13:40;16.90;66.40
41953;DHT22;63613;28.200;112.870;2023-02-28T15:16:18;16.90;66.40
41953;DHT22;63613;28.200;112.870;2023-02-28T15:19:05;16.90;66.40
41953;DHT22;63613;28.200;112.870;2023-02-28T15:21:41;16.90;66.60
41953;DHT22;63613;28.200;112.870;2023-02-28T15:24:17;16.90;66.50
41953;DHT22;63613;28.200;112.870;2023-02-28T15:26:56;16.90;66.50
41953;DHT22;63613;28.200;112.870;2023-02-28T15:29:25;16.90;66.30
41953;DHT22;63613;28.200;112.870;2023-02-28T15:32:00;16.90;66.50
41953;DHT22;63613;28.200;112.870;2023-02-28T15:34:46;16.90;66.60
41953;DHT22;63613;28.200;112.870;2023-02-28T15:42:56;16.90;66.70
41953;DHT22;63613;28.200;112.870;2023-02-28T15:45:28;16.90;66.70
41953;DHT22;63613;28.200;112.870;2023-02-28T15:47:58;16.90;66.70
41953;DHT22;63613;28.200;112.870;2023-02-28T15:50:28;16.90;66.60
41953;DHT22;63613;28.200;112.870;2023-02-28T15:52:55;16.90;66.80
41953;DHT22;63613;28.200;112.870;2023-02-28T15:55:26;16.90;66.80
41953;DHT22;63613;28.200;112.870;2023-02-28T15:57:56;16.90;66.80
41953;DHT22;63613;28.200;112.870;2023-02-28T16:00:28;16.90;66.70
41953;DHT22;63613;28.200;112.870;2023-02-28T16:02:55;16.90;66.70
41953;DHT22;63613;28.200;112.870;2023-02-28T16:05:30;16.90;66.80
41953;DHT22;63613;28.200;112.870;2023-02-28T16:08:11;16.80;66.70
41953;DHT22;63613;28.200;112.870;2023-02-28T16:10:39;16.90;66.80
41953;DHT22;63613;28.200;112.870;2023-02-28T16:13:10;16.90;66.80
41953;DHT22;63613;28.200;112.870;2023-02-28T16:15:59;16.80;66.80
41953;DHT22;63613;28.200;112.870;2023-02-28T16:18:27;16.80;66.80
41953;DHT22;63613;28.200;112.870;2023-02-28T16:20:55;16.80;66.60
41953;DHT22;63613;28.200;112.870;2023-02-28T16:23:22;16.80;66.70
41953;DHT22;63613;28.200;112.870;2023-02-28T16:25:49;16.90;66.80
41953;DHT22;63613;28.200;112.870;2023-02-28T16:28:52;16.90;66.80
41953;DHT22;63613;28.200;112.870;2023-02-28T16:31:13;16.90;66.70
41953;DHT22;63613;28.200;112.870;2023-02-28T16:34:02;16.90;66.70
41953;DHT22;63613;28.200;112.870;2023-02-28T16:36:29;16.90;66.70
41953;DHT22;63613;28.200;112.870;2023-02-28T16:38:56;16.80;66.80
41953;DHT22;63613;28.200;112.870;2023-02-28T16:41:26;16.90;66.80
41953;DHT22;63613;28.200;112.870;2023-02-28T16:43:55;16.90;66.90
41953;DHT22;63613;28.200;112.870;2023-02-28T16:46:33;16.80;66.90
41953;DHT22;63613;28.200;112.870;2023-02-28T16:49:00;16.90;66.90
41953;DHT22;63613;28.200;112.870;2023-02-28T16:51:34;16.90;66.90
41953;DHT22;63613;28.200;112.870;2023-02-28T16:54:00;16.80;67.00
41953;DHT22;63613;28.200;112.870;2023-02-28T16:56:27;16.80;67.10
41953;DHT22;63613;28.200;112.870;2023-02-28T16:58:58;16.80;67.10
41953;DHT22;63613;28.200;112.870;2023-02-28T17:01:26;16.80;67.10
41953;DHT22;63613;28.200;112.870;2023-02-28T17:03:55;16.80;67.10
41953;DHT22;63613;28.200;112.870;2023-02-28T17:06:29;16.80;67.10
41953;DHT22;63613;28.200;112.870;2023-02-28T17:08:58;16.80;67.00
41953;DHT22;63613;28.200;112.870;2023-02-28T17:11:31;16.80;67.10
41953;DHT22;63613;28.200;112.870;2023-02-28T17:13:58;16.80;67.30
41953;DHT22;63613;28.200;112.870;2023-02-28T17:16:33;16.80;67.20
41953;DHT22;63613;28.200;112.870;2023-02-28T17:19:13;16.80;67.30
41953;DHT22;63613;28.200;112.870;2023-02-28T17:21:41;16.80;67.40
41953;DHT22;63613;28.200;112.870;2023-02-28T17:24:10;16.80;67.40
41953;DHT22;63613;28.200;112.870;2023-02-28T17:26:41;16.80;67.30
41953;DHT22;63613;28.200;112.870;2023-02-28T17:29:20;16.80;67.40
41953;DHT22;63613;28.200;112.870;2023-02-28T17:34:55;16.80;67.40
41953;DHT22;63613;28.200;112.870;2023-02-28T17:37:22;16.80;67.40
41953;DHT22;63613;28.200;112.870;2023-02-28T17:39:49;16.80;67.30
41953;DHT22;63613;28.200;112.870;2023-02-28T17:42:16;16.80;67.40
41953;DHT22;63613;28.200;112.870;2023-02-28T17:44:43;16.80;67.50
41953;DHT22;63613;28.200;112.870;2023-02-28T17:47:12;16.80;67.50
41953;DHT22;63613;28.200;112.870;2023-02-28T17:49:39;16.80;67.50
41953;DHT22;63613;28.200;112.870;2023-02-28T17:52:05;16.80;67.40
41953;DHT22;63613;28.200;112.870;2023-02-28T17:57:24;16.80;67.10
41953;DHT22;63613;28.200;112.870;2023-02-28T17:59:50;16.80;67.10
41953;DHT22;63613;28.200;112.870;2023-02-28T18:02:17;16.70;67.10
41953;DHT22;63613;28.200;112.870;2023-02-28T18:04:44;16.70;67.10
41953;DHT22;63613;28.200;112.870;2023-02-28T18:07:12;16.70;67.10
41953;DHT22;63613;28.200;112.870;2023-02-28T18:09:38;16.80;67.10
41953;DHT22;63613;28.200;112.870;2023-02-28T18:12:05;16.80;67.10
41953;DHT22;63613;28.200;112.870;2023-02-28T18:14:32;16.70;67.10
41953;DHT22;63613;28.200;112.870;2023-02-28T18:16:59;16.70;67.20
41953;DHT22;63613;28.200;112.870;2023-02-28T18:19:26;16.70;67.10
41953;DHT22;63613;28.200;112.870;2023-02-28T18:21:53;16.70;67.20
41953;DHT22;63613;28.200;112.870;2023-02-28T18:24:21;16.70;67.20
41953;DHT22;63613;28.200;112.870;2023-02-28T18:26:49;16.70;67.20
41953;DHT22;63613;28.200;112.870;2023-02-28T18:29:22;16.70;67.10
41953;DHT22;63613;28.200;112.870;2023-02-28T18:31:49;16.70;67.10
41953;DHT22;63613;28.200;112.870;2023-02-28T18:34:17;16.70;67.10